Time;durP1;ratioP1;P1;durP2;ratioP2;P2;SDS_P1;SDS_P2;PMS_P1;PMS_P2;Temp;Humidity;BMP_temperature;BMP_pressure;BME280_temperature;BME280_humidity;BME280_pressure;Samples;Min_cycle;Max_cycle;Signal;HPM_P1;HPM_P2
2022/04/10 00:01:52;;;;;;;;;;;;;;;6.74;57.72;100994.62;4410040;32;20321;-68
2022/04/10 00:04:18;;;;;;;;;;;;;;;6.70;57.71;100994.66;4410570;32;20304;-68
2022/04/10 00:06:43;;;;;;;;;;;;;;;6.71;57.82;101001.03;4409437;32;20312;-68
2022/04/10 00:09:10;;;;;;;;;;;;;;;6.67;57.69;101001.06;4410166;32;19968;-68
2022/04/10 00:11:35;;;;;;;;;;;;;;;6.73;58.02;101001.44;4409602;32;19993;-68
2022/04/10 00:14:01;;;;;;;;;;;;;;;6.72;58.04;100995.03;4413189;32;20399;-68
2022/04/10 00:16:27;;;;;;;;;;;;;;;6.75;57.84;100991.44;4412597;32;19970;-68
2022/04/10 00:18:54;;;;;;;;;;;;;;;6.73;58.23;100998.66;4409210;32;20034;-68
2022/04/10 00:21:20;;;;;;;;;;;;;;;6.71;58.20;100996.25;4408714;32;19953;-68
2022/04/10 00:23:45;;;;;;;;;;;;;;;6.64;58.26;100989.87;4409457;32;19993;-68
2022/04/10 00:26:12;;;;;;;;;;;;;;;6.76;57.89;101006.22;4409192;32;20003;-68
2022/04/10 00:28:37;;;;;;;;;;;;;;;6.81;57.76;101003.03;4412647;32;20418;-68
2022/04/10 00:31:03;;;;;;;;;;;;;;;6.86;57.75;101005.38;4409063;32;19997;-68
2022/04/10 00:33:29;;;;;;;;;;;;;;;6.97;57.29;101003.34;4411785;32;20020;-68
2022/04/10 00:35:55;;;;;;;;;;;;;;;6.90;57.34;100998.56;4414701;32;20390;-68
2022/04/10 00:38:20;;;;;;;;;;;;;;;6.91;57.42;101000.16;4411118;32;19985;-68
2022/04/10 00:40:46;;;;;;;;;;;;;;;7.60;55.11;100994.50;4421839;32;20359;-68
2022/04/10 00:43:12;;;;;;;;;;;;;;;7.99;53.85;100989.34;4413181;32;20407;-68
2022/04/10 00:45:37;;;;;;;;;;;;;;;7.02;57.08;100986.91;4416665;32;19972;-68
2022/04/10 00:48:03;;;;;;;;;;;;;;;6.99;57.50;100987.72;4400912;32;19964;-68
2022/04/10 00:50:29;;;;;;;;;;;;;;;6.93;57.68;100989.34;4411028;32;19965;-68
2022/04/10 00:52:57;;;;;;;;;;;;;;;6.71;58.05;100985.06;4412954;32;20255;-68
2022/04/10 00:55:23;;;;;;;;;;;;;;;6.85;57.72;100985.00;4411994;32;19942;-68
2022/04/10 00:57:49;;;;;;;;;;;;;;;6.87;57.77;100984.59;4422219;32;20729;-68
2022/04/10 01:00:15;;;;;;;;;;;;;;;6.90;57.76;100981.00;4413469;32;20332;-68
2022/04/10 01:02:41;;;;;;;;;;;;;;;6.87;57.97;100974.19;4410649;32;20027;-68
2022/04/10 01:05:06;;;;;;;;;;;;;;;6.86;58.02;100969.00;4411661;32;19954;-68
2022/04/10 01:07:33;;;;;;;;;;;;;;;6.90;57.67;100964.97;4416070;32;20001;-68
2022/04/10 01:09:59;;;;;;;;;;;;;;;7.07;57.15;100964.09;4411065;32;20032;-68
2022/04/10 01:12:24;;;;;;;;;;;;;;;7.09;56.82;100963.69;4412624;32;19957;-68
2022/04/10 01:14:50;;;;;;;;;;;;;;;7.06;57.03;100959.69;4414418;32;19954;-68
2022/04/10 01:17:15;;;;;;;;;;;;;;;6.97;57.31;100970.53;4414517;32;20429;-68
2022/04/10 01:19:42;;;;;;;;;;;;;;;6.94;57.30;100967.78;4414235;32;19968;-68
2022/04/10 01:22:09;;;;;;;;;;;;;;;6.68;57.63;100976.69;4411423;32;19965;-68
2022/04/10 01:24:38;;;;;;;;;;;;;;;6.58;57.98;100972.75;4412526;32;19956;-68
2022/04/10 01:27:04;;;;;;;;;;;;;;;7.74;54.77;100971.97;4413703;32;19957;-68
2022/04/10 01:29:31;;;;;;;;;;;;;;;7.98;53.85;100980.16;4419080;32;20386;-68
2022/04/10 01:31:56;;;;;;;;;;;;;;;8.08;53.75;100978.47;4412754;32;20003;-68
2022/04/10 01:34:23;;;;;;;;;;;;;;;7.26;55.92;100968.34;4412488;32;19994;-68
2022/04/10 01:36:48;;;;;;;;;;;;;;;6.55;57.73;100961.56;4414339;32;20406;-68
2022/04/10 01:39:15;;;;;;;;;;;;;;;6.18;59.29;100961.31;4414328;32;20028;-68
2022/04/10 01:41:44;;;;;;;;;;;;;;;6.05;59.81;100963.75;4411775;32;19950;-68
2022/04/10 01:44:10;;;;;;;;;;;;;;;5.95;60.10;100968.13;4415187;32;20374;-68
2022/04/10 01:46:36;;;;;;;;;;;;;;;5.76;60.72;100970.53;4410454;32;19958;-68
2022/04/10 01:49:03;;;;;;;;;;;;;;;5.71;60.87;100963.34;4411785;32;19957;-68
2022/04/10 01:51:29;;;;;;;;;;;;;;;5.63;61.08;100964.56;4411993;32;20335;-68
2022/04/10 01:53:55;;;;;;;;;;;;;;;5.52;61.56;100958.19;4412088;32;20004;-68
2022/04/10 01:56:21;;;;;;;;;;;;;;;5.62;61.09;100957.38;4413399;32;20382;-68
2022/04/10 01:58:47;;;;;;;;;;;;;;;5.60;60.96;100954.19;4416965;32;20290;-68
2022/04/10 02:01:13;;;;;;;;;;;;;;;5.50;61.66;100952.19;4415022;32;19982;-68
2022/04/10 02:03:39;;;;;;;;;;;;;;;5.46;61.85;100964.56;4413310;32;19950;-68
2022/04/10 02:06:06;;;;;;;;;;;;;;;5.38;61.74;100961.00;4417924;32;20003;-68
2022/04/10 02:08:32;;;;;;;;;;;;;;;5.14;63.15;100963.72;4411460;32;20360;-68
2022/04/10 02:10:58;;;;;;;;;;;;;;;5.76;61.50;100962.94;4414331;32;19965;-68
2022/04/10 02:13:24;;;;;;;;;;;;;;;5.81;61.14;100962.59;4413176;32;19957;-68
2022/04/10 02:15:49;;;;;;;;;;;;;;;5.87;60.57;100966.53;4417389;32;20361;-68
2022/04/10 02:18:15;;;;;;;;;;;;;;;5.33;62.45;100963.34;4413665;32;20022;-68
2022/04/10 02:20:40;;;;;;;;;;;;;;;5.32;62.75;100959.78;4410217;32;20047;-68
2022/04/10 02:23:06;;;;;;;;;;;;;;;5.31;62.93;100954.59;4410935;32;19989;-68
2022/04/10 02:25:32;;;;;;;;;;;;;;;5.26;62.86;100957.78;4415670;32;19975;-68
2022/04/10 02:27:57;;;;;;;;;;;;;;;5.23;62.95;100953.00;4415779;32;19999;-68
2022/04/10 02:30:23;;;;;;;;;;;;;;;5.69;61.53;100957.38;4411584;32;20395;-68
2022/04/10 02:32:48;;;;;;;;;;;;;;;5.74;61.04;100959.75;4411076;32;19992;-68
2022/04/10 02:35:14;;;;;;;;;;;;;;;5.90;60.32;100959.37;4414316;32;19996;-68
2022/04/10 02:37:40;;;;;;;;;;;;;;;5.96;60.51;100954.97;4415497;32;19950;-68
2022/04/10 02:40:06;;;;;;;;;;;;;;;5.88;60.55;100961.78;4412690;32;20012;-68
2022/04/10 02:42:34;;;;;;;;;;;;;;;5.94;60.59;100955.37;4411287;32;19985;-68
2022/04/10 02:45:01;;;;;;;;;;;;;;;5.87;60.75;100960.19;4413131;32;19997;-68
2022/04/10 02:47:27;;;;;;;;;;;;;;;5.86;60.74;100961.38;4414968;32;20473;-68
2022/04/10 02:49:52;;;;;;;;;;;;;;;5.29;62.55;100954.19;4416054;32;20050;-68
2022/04/10 02:52:17;;;;;;;;;;;;;;;5.44;62.45;100956.59;4410551;32;20016;-68
2022/04/10 02:54:44;;;;;;;;;;;;;;;5.60;62.05;100962.56;4413191;32;20379;-68
2022/04/10 02:57:10;;;;;;;;;;;;;;;5.68;61.57;100961.34;4414817;32;19964;-68
2022/04/10 02:59:36;;;;;;;;;;;;;;;5.09;63.69;100959.34;4412989;32;20471;-68
2022/04/10 03:02:02;;;;;;;;;;;;;;;4.89;64.36;100957.31;4409966;32;20041;-68
2022/04/10 03:04:28;;;;;;;;;;;;;;;5.51;62.06;100961.38;4412760;32;20262;-68
2022/04/10 03:06:53;;;;;;;;;;;;;;;5.00;63.46;100958.16;4412009;32;19972;-68
2022/04/10 03:09:19;;;;;;;;;;;;;;;4.94;63.41;100970.88;4412396;32;20174;-68
2022/04/10 03:11:45;;;;;;;;;;;;;;;4.90;63.56;100962.50;4417364;32;19993;-68
2022/04/10 03:14:11;;;;;;;;;;;;;;;4.95;63.13;100970.50;4416316;32;19965;-68
2022/04/10 03:16:36;;;;;;;;;;;;;;;4.77;64.36;100974.41;4412566;32;19958;-68
2022/04/10 03:19:03;;;;;;;;;;;;;;;4.80;64.08;100982.00;4412524;32;19961;-68
2022/04/10 03:21:28;;;;;;;;;;;;;;;4.78;64.50;100965.66;4413250;32;20335;-68
2022/04/10 03:23:54;;;;;;;;;;;;;;;4.80;64.49;100977.22;4412954;32;20033;-68
2022/04/10 03:26:20;;;;;;;;;;;;;;;4.74;64.32;100975.19;4417447;32;20331;-68
2022/04/10 03:28:45;;;;;;;;;;;;;;;4.70;64.70;100966.84;4413373;32;20045;-68
2022/04/10 03:31:11;;;;;;;;;;;;;;;6.01;60.55;100962.94;4418460;32;19954;-68
2022/04/10 03:33:36;;;;;;;;;;;;;;;6.01;60.24;100977.72;4414126;32;19960;-68
2022/04/10 03:36:03;;;;;;;;;;;;;;;6.04;60.09;100976.91;4412724;32;19985;-68
2022/04/10 03:38:28;;;;;;;;;;;;;;;5.35;61.59;100980.50;4417638;32;20645;-68
2022/04/10 03:40:53;;;;;;;;;;;;;;;4.79;64.36;100986.75;4410262;32;20512;-68
2022/04/10 03:43:19;;;;;;;;;;;;;;;4.69;65.10;100976.37;4412877;32;19961;-68
2022/04/10 03:45:45;;;;;;;;;;;;;;;4.78;65.04;100987.97;4414566;32;19988;-68
2022/04/10 03:48:10;;;;;;;;;;;;;;;5.17;64.10;100988.06;4418529;32;19945;-68
2022/04/10 03:50:36;;;;;;;;;;;;;;;6.11;60.64;100981.69;4414445;32;19962;-68
2022/04/10 03:53:02;;;;;;;;;;;;;;;5.41;62.35;100982.50;4413375;32;19972;-68
2022/04/10 03:55:29;;;;;;;;;;;;;;;5.21;63.13;100977.69;4414488;32;19961;-68
2022/04/10 03:57:54;;;;;;;;;;;;;;;5.21;62.90;100972.91;4415535;32;19968;-68
2022/04/10 04:00:20;;;;;;;;;;;;;;;5.32;62.65;100975.72;4413437;32;20304;-67
2022/04/10 04:02:46;;;;;;;;;;;;;;;6.51;58.46;100977.56;4411267;32;20058;-67
2022/04/10 04:05:12;;;;;;;;;;;;;;;6.54;58.30;100977.56;4413462;32;20002;-67
2022/04/10 04:07:38;;;;;;;;;;;;;;;6.37;58.63;100972.81;4414722;32;20639;-67
2022/04/10 04:10:08;;;;;;;;;;;;;;;5.78;60.28;100976.53;4417363;32;19953;-67
2022/04/10 04:12:34;;;;;;;;;;;;;;;5.35;62.22;100969.34;4415861;32;20030;-67
2022/04/10 04:14:59;;;;;;;;;;;;;;;6.34;59.09;100970.03;4423607;32;20030;-67
2022/04/10 04:17:25;;;;;;;;;;;;;;;6.52;58.70;100970.75;4417955;32;20109;-68
2022/04/10 04:19:51;;;;;;;;;;;;;;;6.40;58.82;100971.22;4416280;32;19991;-68
2022/04/10 04:22:17;;;;;;;;;;;;;;;6.68;58.05;100976.69;4416208;32;19991;-68
2022/04/10 04:24:43;;;;;;;;;;;;;;;6.65;57.87;100974.69;4415718;32;19958;-68
2022/04/10 04:27:09;;;;;;;;;;;;;;;5.73;59.47;100976.91;4419298;32;20343;-68
2022/04/10 04:29:35;;;;;;;;;;;;;;;5.87;59.54;100972.13;4409539;32;19985;-68
2022/04/10 04:32:00;;;;;;;;;;;;;;;6.08;59.79;100969.31;4415983;32;19957;-68
2022/04/10 04:34:26;;;;;;;;;;;;;;;4.92;62.94;100968.50;4417048;32;19965;-68
2022/04/10 04:36:52;;;;;;;;;;;;;;;5.00;63.08;100975.66;4413966;32;20008;-68
2022/04/10 04:39:17;;;;;;;;;;;;;;;4.77;63.84;100983.56;4417118;32;20375;-68
2022/04/10 04:41:43;;;;;;;;;;;;;;;4.59;64.56;100976.34;4418399;32;19950;-68
2022/04/10 04:44:09;;;;;;;;;;;;;;;4.61;64.52;100980.34;4416189;32;20046;-68
2022/04/10 04:46:35;;;;;;;;;;;;;;;4.57;64.84;100981.53;4415736;32;19989;-68
2022/04/10 04:49:01;;;;;;;;;;;;;;;4.45;65.22;100979.84;4415856;32;20054;-68
2022/04/10 04:51:27;;;;;;;;;;;;;;;4.41;65.21;100984.62;4414262;32;20321;-68
2022/04/10 04:53:53;;;;;;;;;;;;;;;4.43;65.29;100982.25;4416935;32;19964;-68
2022/04/10 04:56:19;;;;;;;;;;;;;;;4.38;65.60;100982.63;4416019;32;20371;-68
2022/04/10 04:58:44;;;;;;;;;;;;;;;4.39;65.61;100978.66;4416312;32;20619;-68
2022/04/10 05:01:10;;;;;;;;;;;;;;;4.36;65.52;100984.22;4415388;32;19942;-68
2022/04/10 05:03:35;;;;;;;;;;;;;;;4.30;65.37;100991.34;4414239;32;20042;-68
2022/04/10 05:06:01;;;;;;;;;;;;;;;4.25;65.96;100988.91;4406058;32;20266;-68
2022/04/10 05:08:27;;;;;;;;;;;;;;;5.41;62.58;100987.28;4416715;32;19945;-68
2022/04/10 05:10:53;;;;;;;;;;;;;;;5.61;61.40;100983.69;4415203;32;20045;-68
2022/04/10 05:13:18;;;;;;;;;;;;;;;4.46;64.50;100989.03;4418862;32;19966;-68
2022/04/10 05:15:44;;;;;;;;;;;;;;;4.21;65.32;100985.31;4418867;32;19954;-68
2022/04/10 05:18:09;;;;;;;;;;;;;;;4.15;65.82;100977.31;4414267;32;20009;-68
2022/04/10 05:20:37;;;;;;;;;;;;;;;4.11;66.23;100987.66;4412418;32;19996;-68
2022/04/10 05:23:03;;;;;;;;;;;;;;;4.19;66.22;100985.72;4411711;32;20225;-68
2022/04/10 05:25:28;;;;;;;;;;;;;;;4.20;65.99;100987.28;4418978;32;19964;-68
2022/04/10 05:27:54;;;;;;;;;;;;;;;4.18;66.10;100996.03;4418470;32;19973;-68
2022/04/10 05:30:20;;;;;;;;;;;;;;;5.16;62.69;101000.41;4415162;32;19997;-68
2022/04/10 05:32:45;;;;;;;;;;;;;;;5.03;63.20;100997.19;4413649;32;20382;-68
2022/04/10 05:35:11;;;;;;;;;;;;;;;4.45;64.59;100996.56;4415081;32;19945;-68
2022/04/10 05:37:37;;;;;;;;;;;;;;;4.97;63.77;101001.56;4413488;32;19981;-68
2022/04/10 05:40:03;;;;;;;;;;;;;;;5.23;62.44;101008.78;4414357;32;19997;-68
2022/04/10 05:42:28;;;;;;;;;;;;;;;5.12;62.60;101011.56;4411705;32;19954;-67
2022/04/10 05:45:01;;;;;;;;;;;;;;;4.62;64.42;101014.56;4414212;32;19950;-67
2022/04/10 05:47:27;;;;;;;;;;;;;;;4.58;64.66;101005.41;4419677;32;20290;-67
2022/04/10 05:49:53;;;;;;;;;;;;;;;4.89;62.79;101007.50;4414811;32;20001;-68
2022/04/10 05:52:18;;;;;;;;;;;;;;;5.53;62.18;101010.00;4412121;32;19992;-68
2022/04/10 05:54:44;;;;;;;;;;;;;;;5.62;61.20;101009.63;4416453;32;19973;-68
2022/04/10 05:57:09;;;;;;;;;;;;;;;5.77;61.49;101003.63;4414329;32;19991;-68
2022/04/10 05:59:35;;;;;;;;;;;;;;;5.44;61.85;101009.63;4413818;32;19993;-67
2022/04/10 06:02:01;;;;;;;;;;;;;;;5.49;61.68;101012.00;4413647;32;19988;-68
2022/04/10 06:04:27;;;;;;;;;;;;;;;5.36;62.70;101007.22;4416315;32;19953;-68
2022/04/10 06:06:53;;;;;;;;;;;;;;;5.44;61.38;101012.41;4417550;32;20380;-68
2022/04/10 06:09:19;;;;;;;;;;;;;;;5.38;62.37;101002.03;4414134;32;20307;-68
2022/04/10 06:11:44;;;;;;;;;;;;;;;5.54;61.94;101013.59;4413061;32;20351;-68
2022/04/10 06:14:10;;;;;;;;;;;;;;;5.65;61.59;101011.62;4413825;32;20320;-68
2022/04/10 06:16:36;;;;;;;;;;;;;;;5.72;61.64;101011.62;4416066;32;20307;-68
2022/04/10 06:19:02;;;;;;;;;;;;;;;5.70;61.30;101009.22;4413510;32;20330;-68
2022/04/10 06:21:28;;;;;;;;;;;;;;;5.89;61.04;101014.44;4416992;32;19989;-68
2022/04/10 06:23:53;;;;;;;;;;;;;;;6.04;60.82;101013.22;4413553;32;20008;-68
2022/04/10 06:26:19;;;;;;;;;;;;;;;6.19;60.00;101021.59;4414533;32;19984;-68
2022/04/10 06:28:44;;;;;;;;;;;;;;;6.33;60.98;101008.38;4413780;32;20392;-68
2022/04/10 06:31:10;;;;;;;;;;;;;;;6.36;59.43;101013.16;4412794;32;20041;-67
2022/04/10 06:33:36;;;;;;;;;;;;;;;6.37;59.38;101009.16;4415624;32;20070;-68
2022/04/10 06:36:02;;;;;;;;;;;;;;;6.81;59.17;101011.41;4415947;32;20001;-68
2022/04/10 06:38:28;;;;;;;;;;;;;;;7.01;58.42;101009.69;4413015;32;20348;-68
2022/04/10 06:40:53;;;;;;;;;;;;;;;7.27;57.36;101018.34;4414309;32;19957;-68
2022/04/10 06:43:20;;;;;;;;;;;;;;;7.39;56.95;101014.25;4412846;32;19958;-68
2022/04/10 06:45:46;;;;;;;;;;;;;;;7.54;56.70;101008.16;4415857;32;19984;-68
2022/04/10 06:48:12;;;;;;;;;;;;;;;7.46;56.66;100998.19;4415765;32;20614;-68
2022/04/10 06:50:38;;;;;;;;;;;;;;;7.66;56.08;101004.84;4415309;32;20005;-68
2022/04/10 06:53:03;;;;;;;;;;;;;;;7.73;55.96;101013.19;4412921;32;20307;-68
2022/04/10 06:55:31;;;;;;;;;;;;;;;8.43;54.19;101017.34;4416833;32;20387;-68
2022/04/10 06:57:57;;;;;;;;;;;;;;;8.04;55.29;101019.75;4414057;32;19953;-68
2022/04/10 07:00:23;;;;;;;;;;;;;;;7.81;56.19;101017.53;4414412;32;20019;-68
2022/04/10 07:02:48;;;;;;;;;;;;;;;7.86;56.04;101019.09;4413397;32;19954;-68
2022/04/10 07:05:14;;;;;;;;;;;;;;;8.02;55.39;101020.16;4415267;32;19942;-68
2022/04/10 07:07:40;;;;;;;;;;;;;;;8.69;53.57;101025.09;4415150;32;19977;-68
2022/04/10 07:10:06;;;;;;;;;;;;;;;8.23;54.84;101024.00;4415118;32;20229;-68
2022/04/10 07:12:32;;;;;;;;;;;;;;;8.43;54.78;101034.19;4415009;32;20100;-68
2022/04/10 07:15:01;;;;;;;;;;;;;;;8.56;55.08;101042.88;4415625;32;19960;-68
2022/04/10 07:17:27;;;;;;;;;;;;;;;9.22;53.53;101036.41;4413250;32;19986;-68
2022/04/10 07:19:52;;;;;;;;;;;;;;;9.09;52.79;101043.03;4417244;32;19946;-68
2022/04/10 07:25:04;;;;;;;;;;;;;;;9.01;52.75;101044.31;4412559;32;19957;-68
2022/04/10 07:27:30;;;;;;;;;;;;;;;8.94;53.78;101045.22;4415612;32;19984;-68
2022/04/10 07:29:55;;;;;;;;;;;;;;;8.99;53.26;101044.75;4410444;32;20291;-68
2022/04/10 07:32:21;;;;;;;;;;;;;;;9.15;53.30;101039.34;4414871;32;19999;-68
2022/04/10 07:34:46;;;;;;;;;;;;;;;9.30;53.56;101039.94;4410942;32;20034;-68
2022/04/10 07:37:12;;;;;;;;;;;;;;;9.43;52.25;101029.69;4401537;32;20576;-68
2022/04/10 07:39:37;;;;;;;;;;;;;;;9.91;50.70;101044.97;4412192;32;19954;-68
2022/04/10 07:42:03;;;;;;;;;;;;;;;10.06;50.65;101045.53;4412819;32;20406;-68
2022/04/10 07:44:29;;;;;;;;;;;;;;;9.91;50.77;101033.75;4410920;32;19961;-68
2022/04/10 07:47:26;;;;;;;;;;;;;;;9.87;50.98;101043.44;4416521;32;20597;-68
2022/04/10 07:49:40;;;;;;;;;;;;;;;10.09;50.68;101050.34;4415806;32;19973;-68
2022/04/10 07:52:06;;;;;;;;;;;;;;;10.22;50.34;101047.72;4416720;32;20004;-68
2022/04/10 07:54:32;;;;;;;;;;;;;;;10.37;49.79;101047.00;4414611;32;19958;-68
2022/04/10 07:56:58;;;;;;;;;;;;;;;10.44;49.26;101054.53;4413618;32;19989;-68
2022/04/10 07:59:23;;;;;;;;;;;;;;;10.54;49.30;101047.91;4411256;32;19946;-68
2022/04/10 08:01:49;;;;;;;;;;;;;;;10.76;48.44;101052.72;4410927;32;19993;-68
2022/04/10 08:04:15;;;;;;;;;;;;;;;10.99;47.28;101055.47;4414380;32;19954;-68
2022/04/10 08:06:40;;;;;;;;;;;;;;;11.13;46.31;101040.25;4416521;32;20001;-68
2022/04/10 08:09:06;;;;;;;;;;;;;;;11.26;46.54;101044.03;4413566;32;20007;-68
2022/04/10 08:11:32;;;;;;;;;;;;;;;11.41;46.02;101043.25;4412970;32;19965;-68
2022/04/10 08:13:58;;;;;;;;;;;;;;;12.84;41.95;101046.47;4415289;32;19953;-68
2022/04/10 08:16:24;;;;;;;;;;;;;;;13.09;40.40;101054.25;4417551;32;19977;-68
2022/04/10 08:18:50;;;;;;;;;;;;;;;12.90;40.15;101050.34;4417264;32;20503;-68
2022/04/10 08:21:16;;;;;;;;;;;;;;;12.81;40.88;101043.72;4415058;32;20450;-68
2022/04/10 08:23:41;;;;;;;;;;;;;;;11.68;43.29;101040.25;4413407;32;19997;-68
2022/04/10 08:26:07;;;;;;;;;;;;;;;11.57;43.57;101040.47;4415095;32;20371;-68
2022/04/10 08:28:34;;;;;;;;;;;;;;;11.49;43.69;101043.91;4416488;32;20347;-68
2022/04/10 08:31:00;;;;;;;;;;;;;;;11.75;43.04;101049.34;4412418;32;20338;-68
2022/04/10 08:33:26;;;;;;;;;;;;;;;11.86;42.23;101046.25;4418921;32;19984;-68
2022/04/10 08:35:51;;;;;;;;;;;;;;;12.08;41.89;101048.13;4413271;32;19985;-68
2022/04/10 08:38:18;;;;;;;;;;;;;;;12.21;41.24;101044.59;4412598;32;20024;-68
2022/04/10 08:40:44;;;;;;;;;;;;;;;12.36;41.55;101043.75;4412958;32;20394;-68
2022/04/10 08:43:11;;;;;;;;;;;;;;;12.58;40.98;101049.63;4401122;32;19977;-68
2022/04/10 08:45:38;;;;;;;;;;;;;;;12.78;40.58;101042.59;4416900;32;20371;-68
2022/04/10 08:48:04;;;;;;;;;;;;;;;13.07;40.00;101048.25;4415266;32;19965;-68
2022/04/10 08:50:30;;;;;;;;;;;;;;;13.38;39.58;101046.50;4412882;32;20007;-68
2022/04/10 08:52:56;;;;;;;;;;;;;;;13.49;39.37;101050.59;4413921;32;20308;-68
2022/04/10 08:55:22;;;;;;;;;;;;;;;13.67;37.29;101044.38;4418323;32;19976;-68
2022/04/10 08:57:47;;;;;;;;;;;;;;;13.98;37.48;101056.69;4411733;32;19946;-68
2022/04/10 09:00:13;;;;;;;;;;;;;;;14.14;36.58;101045.22;4413848;32;19969;-68
2022/04/10 09:02:47;;;;;;;;;;;;;;;14.16;35.63;101056.09;4415060;32;20282;-68
2022/04/10 09:05:17;;;;;;;;;;;;;;;14.20;33.52;101048.31;4418838;32;19953;-68
2022/04/10 09:08:02;;;;;;;;;;;;;;;14.04;34.65;101052.84;4415401;32;19954;-68
2022/04/10 09:10:28;;;;;;;;;;;;;;;14.19;33.71;101063.69;4413508;32;19991;-68
2022/04/10 09:12:54;;;;;;;;;;;;;;;14.63;34.07;101057.69;4413977;32;20306;-68
2022/04/10 09:15:20;;;;;;;;;;;;;;;14.80;32.54;101044.97;4412942;32;19957;-68
2022/04/10 09:18:00;;;;;;;;;;;;;;;15.08;32.83;101055.25;4417241;32;19981;-68
2022/04/10 09:20:26;;;;;;;;;;;;;;;15.08;32.88;101052.41;4417237;32;20059;-68
2022/04/10 09:23:07;;;;;;;;;;;;;;;14.78;32.85;101053.13;4414694;32;19960;-68
2022/04/10 09:25:40;;;;;;;;;;;;;;;14.73;32.61;101052.91;4412627;32;19961;-68
2022/04/10 09:28:06;;;;;;;;;;;;;;;14.62;32.32;101058.97;4415183;32;20052;-68
2022/04/10 09:30:34;;;;;;;;;;;;;;;14.77;32.13;101045.88;4399669;32;20000;-68
2022/04/10 09:32:59;;;;;;;;;;;;;;;14.84;32.01;101041.97;4412647;32;19945;-68
2022/04/10 09:35:25;;;;;;;;;;;;;;;14.88;32.01;101037.75;4413747;32;19965;-68
2022/04/10 09:37:55;;;;;;;;;;;;;;;15.00;32.12;101038.97;4415681;32;20341;-68
2022/04/10 09:48:27;;;;;;;;;;;;;;;15.76;31.62;101054.22;3953703;32;15725525;-68
2022/04/10 09:50:54;;;;;;;;;;;;;;;15.34;32.80;101041.72;4431974;32;20000;-68
2022/04/10 09:53:20;;;;;;;;;;;;;;;15.67;32.10;101040.78;4432048;32;19955;-68
2022/04/10 09:55:51;;;;;;;;;;;;;;;16.35;31.29;101041.63;4434189;32;20005;-68
2022/04/10 09:58:19;;;;;;;;;;;;;;;16.56;31.25;101033.00;4433143;32;20311;-68
2022/04/10 10:00:45;;;;;;;;;;;;;;;16.50;31.18;101043.41;4432064;32;19964;-68
2022/04/10 10:03:11;;;;;;;;;;;;;;;16.34;31.59;101035.16;4434319;32;20011;-68
2022/04/10 10:05:37;;;;;;;;;;;;;;;16.44;31.49;101038.84;4431277;32;19961;-68
2022/04/10 10:08:04;;;;;;;;;;;;;;;16.69;31.39;101027.94;4436124;32;19961;-68
2022/04/10 10:10:30;;;;;;;;;;;;;;;16.68;31.61;101034.91;4434714;32;19960;-68
2022/04/10 10:12:57;;;;;;;;;;;;;;;17.01;31.23;101037.88;4434225;32;20288;-68
2022/04/10 10:15:23;;;;;;;;;;;;;;;16.61;31.31;101023.84;4435116;32;20004;-68
2022/04/10 10:17:49;;;;;;;;;;;;;;;16.18;32.23;101024.09;4434408;32;19969;-68
2022/04/10 10:20:15;;;;;;;;;;;;;;;16.23;32.17;101026.28;4437915;32;20308;-69
2022/04/10 10:22:40;;;;;;;;;;;;;;;16.59;31.53;101017.84;4434699;32;19985;-68
2022/04/10 10:25:12;;;;;;;;;;;;;;;16.98;31.27;101022.56;4430807;32;19965;-68
2022/04/10 10:30:32;;;;;;;;;;;;;;;17.96;29.75;101024.78;3954802;32;15723524;-68
2022/04/10 10:33:11;;;;;;;;;;;;;;;18.03;29.23;101027.28;4431156;32;20030;-67
2022/04/10 10:35:40;;;;;;;;;;;;;;;18.19;28.29;101021.19;4432537;32;20443;-68
2022/04/10 10:43:48;;;;;;;;;;;;;;;19.18;25.81;101032.56;3971066;32;15723320;-68
2022/04/10 10:46:22;;;;;;;;;;;;;;;19.18;25.81;101032.56;4452630;32;20374;-69
2022/04/10 10:48:50;;;;;;;;;;;;;;;19.21;25.64;101023.03;4451637;32;19957;-69
2022/04/10 10:53:53;;;;;;;;;;;;;;;20.22;24.87;101024.19;3953335;32;15726495;-69
2022/04/10 10:56:19;;;;;;;;;;;;;;;20.22;24.87;101024.19;4429148;32;19969;-69
2022/04/10 10:58:47;;;;;;;;;;;;;;;20.26;24.54;101015.41;4429970;32;20363;-69
2022/04/10 11:01:20;;;;;;;;;;;;;;;20.33;24.88;101023.56;4425242;32;20277;-69
2022/04/10 11:04:06;;;;;;;;;;;;;;;20.20;24.94;101014.56;4430284;32;19958;-69
2022/04/10 11:06:48;;;;;;;;;;;;;;;19.91;24.85;101021.13;4436526;32;19961;-69
2022/04/10 11:09:22;;;;;;;;;;;;;;;19.60;25.38;101015.16;4427022;32;20040;-69
2022/04/10 11:11:48;;;;;;;;;;;;;;;20.37;24.36;101010.63;4412344;32;19961;-69
2022/04/10 11:14:34;;;;;;;;;;;;;;;20.63;24.31;101005.00;4427719;32;19980;-69
2022/04/10 11:17:20;;;;;;;;;;;;;;;20.54;24.45;101005.94;4433643;32;20301;-68
2022/04/10 11:19:48;;;;;;;;;;;;;;;20.16;24.71;100994.78;4432188;32;20064;-69
2022/04/10 11:22:18;;;;;;;;;;;;;;;20.42;24.18;100992.78;4427804;32;20339;-69
2022/04/10 11:24:45;;;;;;;;;;;;;;;20.85;24.11;100994.59;4429463;32;20216;-69
2022/04/10 11:27:12;;;;;;;;;;;;;;;20.60;24.15;100992.50;4430384;32;20298;-69
2022/04/10 11:29:41;;;;;;;;;;;;;;;20.01;25.23;100987.50;4428379;32;20456;-69
2022/04/10 11:32:07;;;;;;;;;;;;;;;20.59;24.37;100975.84;4427909;32;19961;-69
2022/04/10 11:34:39;;;;;;;;;;;;;;;21.06;23.31;100983.91;4432976;32;19949;-69
2022/04/10 11:37:05;;;;;;;;;;;;;;;21.34;22.96;100977.16;4434683;32;19996;-69
2022/04/10 11:39:33;;;;;;;;;;;;;;;21.15;23.29;100966.56;4432763;32;19969;-69
2022/04/10 11:42:01;;;;;;;;;;;;;;;19.72;24.23;100974.88;4425555;32;20004;-69
2022/04/10 11:44:28;;;;;;;;;;;;;;;20.21;24.07;100970.41;4432107;32;20256;-69
2022/04/10 11:46:53;;;;;;;;;;;;;;;19.94;24.15;100973.66;4426893;32;19953;-69
2022/04/10 11:49:19;;;;;;;;;;;;;;;20.11;23.68;100971.78;4431402;32;20253;-69
2022/04/10 11:51:53;;;;;;;;;;;;;;;19.85;23.91;100968.06;4425938;32;20027;-69
2022/04/10 11:54:23;;;;;;;;;;;;;;;20.11;24.04;100969.72;4429334;32;19961;-69
2022/04/10 11:56:49;;;;;;;;;;;;;;;20.53;23.37;100975.78;4429738;32;19957;-69
2022/04/10 11:59:14;;;;;;;;;;;;;;;20.58;22.72;100980.75;4432494;32;20035;-68
2022/04/10 12:01:42;;;;;;;;;;;;;;;20.95;22.53;100964.56;4430488;32;19969;-68
2022/04/10 12:04:08;;;;;;;;;;;;;;;21.68;22.00;100976.13;4424302;32;19953;-69
2022/04/10 12:06:34;;;;;;;;;;;;;;;21.57;22.41;100969.53;4419964;32;19988;-68
2022/04/10 12:08:59;;;;;;;;;;;;;;;21.62;22.47;100978.16;4417050;32;20658;-68
2022/04/10 12:11:25;;;;;;;;;;;;;;;21.87;22.50;100970.03;4413853;32;20417;-69
2022/04/10 12:13:50;;;;;;;;;;;;;;;21.81;22.21;100960.62;4419173;32;20428;-68
2022/04/10 12:16:16;;;;;;;;;;;;;;;22.07;22.28;100958.41;4403300;32;20035;-68
2022/04/10 12:18:58;;;;;;;;;;;;;;;21.63;22.31;100961.78;4424183;32;20010;-69
2022/04/10 12:21:23;;;;;;;;;;;;;;;21.35;22.58;100958.69;4419453;32;20424;-69
2022/04/10 12:24:05;;;;;;;;;;;;;;;21.15;23.35;100961.66;4414586;32;20004;-69
2022/04/10 12:26:33;;;;;;;;;;;;;;;20.92;23.03;100950.44;4420405;32;20320;-69
2022/04/10 12:28:59;;;;;;;;;;;;;;;21.78;21.78;100948.09;4422780;32;19989;-69
2022/04/10 12:31:24;;;;;;;;;;;;;;;22.14;21.28;100961.59;4417072;32;20072;-69
2022/04/10 12:33:50;;;;;;;;;;;;;;;21.41;22.72;100939.47;4420596;32;20002;-68
2022/04/10 12:36:17;;;;;;;;;;;;;;;21.88;22.16;100942.94;4424949;32;20252;-68
2022/04/10 12:38:42;;;;;;;;;;;;;;;22.25;22.17;100938.72;4422072;32;20311;-68
2022/04/10 12:41:08;;;;;;;;;;;;;;;22.57;21.68;100942.25;4418484;32;20056;-68
2022/04/10 12:43:34;;;;;;;;;;;;;;;22.40;20.95;100942.16;4419435;32;19968;-68
2022/04/10 12:46:14;;;;;;;;;;;;;;;22.72;21.01;100935.00;4405677;32;19984;-68
2022/04/10 12:48:40;;;;;;;;;;;;;;;22.35;21.36;100945.78;4417251;32;19964;-68
2022/04/10 12:53:49;;;;;;;;;;;;;;;22.97;21.35;100938.94;3954584;32;15753655;-69
2022/04/10 12:56:19;;;;;;;;;;;;;;;22.97;21.35;100938.94;4432036;32;20304;-69
2022/04/10 12:58:45;;;;;;;;;;;;;;;22.63;20.60;100940.16;4437112;32;19976;-69
2022/04/10 13:01:28;;;;;;;;;;;;;;;22.54;20.95;100931.81;4434104;32;19998;-70
2022/04/10 13:03:53;;;;;;;;;;;;;;;22.26;21.50;100928.81;4434930;32;20311;-69
2022/04/10 13:06:22;;;;;;;;;;;;;;;22.47;21.52;100930.19;4438383;32;20305;-69